createdAt,value
2018-12-25T00:00:51.875Z,2.60
2018-12-25T00:03:17.965Z,2.50
2018-12-25T00:05:44.044Z,2.60
2018-12-25T00:08:10.212Z,2.70
2018-12-25T00:10:36.280Z,2.60
2018-12-25T00:13:02.360Z,2.50
2018-12-25T00:15:28.437Z,2.50
2018-12-25T00:17:54.527Z,2.60
2018-12-25T00:20:20.677Z,2.50
2018-12-25T00:22:46.780Z,2.40
2018-12-25T00:25:12.873Z,2.50
2018-12-25T00:27:38.965Z,2.60
2018-12-25T00:30:05.836Z,2.70
2018-12-25T00:32:31.904Z,2.60
2018-12-25T00:34:58.052Z,2.60
2018-12-25T00:37:24.127Z,2.60
2018-12-25T00:39:50.244Z,2.50
2018-12-25T00:42:16.311Z,2.40
2018-12-25T00:44:42.380Z,2.40
2018-12-25T00:47:08.476Z,2.40
2018-12-25T00:49:34.551Z,2.40
2018-12-25T00:52:00.644Z,2.40
2018-12-25T00:54:26.811Z,2.40
2018-12-25T00:56:52.901Z,2.50
2018-12-25T00:59:19.027Z,2.40
2018-12-25T01:01:45.108Z,2.40
2018-12-25T01:04:11.187Z,2.40
2018-12-25T01:06:37.287Z,2.30
2018-12-25T01:09:04.999Z,2.40
2018-12-25T01:11:31.093Z,2.40
2018-12-25T01:13:57.197Z,2.30
2018-12-25T01:16:23.268Z,2.40
2018-12-25T01:18:49.374Z,2.40
2018-12-25T01:21:15.448Z,2.40
2018-12-25T01:23:41.542Z,2.30
2018-12-25T01:26:07.607Z,2.20
2018-12-25T01:28:34.027Z,2.30
2018-12-25T01:31:00.093Z,2.30
2018-12-25T01:33:26.189Z,2.20
2018-12-25T01:35:52.464Z,2.20
2018-12-25T01:38:18.563Z,2.10
2018-12-25T01:40:44.648Z,2.10
2018-12-25T01:43:10.715Z,2.00
2018-12-25T01:45:36.816Z,2.00
2018-12-25T01:48:02.908Z,1.90
2018-12-25T01:50:28.988Z,1.90
2018-12-25T01:52:55.073Z,1.80
2018-12-25T01:55:21.146Z,1.80
2018-12-25T01:57:47.244Z,1.60
2018-12-25T02:00:13.308Z,1.50
2018-12-25T02:02:39.387Z,1.50
2018-12-25T02:05:05.584Z,1.50
2018-12-25T02:07:31.667Z,1.50
2018-12-25T02:09:57.823Z,1.50
2018-12-25T02:12:23.895Z,1.50
2018-12-25T02:14:50.002Z,1.50
2018-12-25T02:17:16.163Z,1.40
2018-12-25T02:19:42.291Z,1.30
2018-12-25T02:22:08.359Z,1.30
2018-12-25T02:24:34.432Z,1.30
2018-12-25T02:27:00.515Z,1.30
2018-12-25T02:29:26.581Z,1.40
2018-12-25T02:31:52.663Z,1.50
2018-12-25T02:34:18.739Z,1.40
2018-12-25T02:36:44.838Z,1.40
2018-12-25T02:39:10.919Z,1.40
2018-12-25T02:41:37.015Z,1.30
2018-12-25T02:44:03.201Z,1.20
2018-12-25T02:46:29.286Z,1.10
2018-12-25T02:48:55.416Z,1.10
2018-12-25T02:51:21.486Z,1.10
2018-12-25T02:53:47.557Z,1.20
2018-12-25T02:56:13.655Z,1.30
2018-12-25T02:58:39.732Z,1.40
2018-12-25T03:01:05.821Z,1.60
2018-12-25T03:03:31.908Z,1.60
2018-12-25T03:05:57.996Z,1.60
2018-12-25T03:08:24.285Z,1.80
2018-12-25T03:10:50.358Z,1.80
2018-12-25T03:13:16.540Z,1.70
2018-12-25T03:15:42.625Z,1.70
2018-12-25T03:18:08.713Z,1.80
2018-12-25T03:20:34.796Z,1.90
2018-12-25T03:23:00.864Z,1.90
2018-12-25T03:25:26.949Z,1.90
2018-12-25T03:27:53.017Z,1.90
2018-12-25T03:30:19.110Z,1.90
2018-12-25T03:32:45.281Z,2.00
2018-12-25T03:35:11.373Z,2.10
2018-12-25T03:37:37.440Z,2.00
2018-12-25T03:40:05.339Z,2.10
2018-12-25T03:42:31.414Z,2.10
2018-12-25T03:44:57.502Z,2.00
2018-12-25T03:47:23.588Z,1.90
2018-12-25T03:49:49.708Z,1.90
2018-12-25T03:52:15.812Z,1.80
2018-12-25T03:54:43.264Z,1.90
2018-12-25T03:57:09.341Z,2.00
2018-12-25T03:59:35.532Z,2.00
2018-12-25T04:02:01.599Z,2.10
2018-12-25T04:04:27.696Z,2.10
2018-12-25T04:06:53.762Z,2.10
2018-12-25T04:09:20.953Z,2.20
2018-12-25T04:11:47.026Z,2.10
2018-12-25T04:14:13.090Z,2.20
2018-12-25T04:16:39.184Z,2.00
2018-12-25T04:19:05.248Z,1.70
2018-12-25T04:21:31.363Z,2.20
2018-12-25T04:23:57.460Z,2.20
2018-12-25T04:26:23.596Z,2.00
2018-12-25T04:28:49.672Z,1.90
2018-12-25T04:31:15.749Z,1.90
2018-12-25T04:33:41.857Z,2.00
2018-12-25T04:36:07.927Z,2.00
2018-12-25T04:38:34.011Z,2.00
2018-12-25T04:41:00.089Z,2.00
2018-12-25T04:43:26.204Z,2.00
2018-12-25T04:45:52.344Z,2.00
2018-12-25T04:48:18.447Z,2.00
2018-12-25T04:50:44.535Z,2.00
2018-12-25T04:53:10.702Z,2.00
2018-12-25T04:55:36.789Z,1.90
2018-12-25T04:58:02.867Z,2.00
2018-12-25T05:00:28.961Z,1.90
2018-12-25T05:02:55.032Z,2.00
2018-12-25T05:05:21.113Z,2.00
2018-12-25T05:07:47.288Z,2.00
2018-12-25T05:10:13.355Z,1.90
2018-12-25T05:12:39.427Z,1.80
2018-12-25T05:15:05.511Z,1.90
2018-12-25T05:17:31.599Z,1.90
2018-12-25T05:19:57.672Z,1.90
2018-12-25T05:22:23.759Z,2.00
2018-12-25T05:24:49.871Z,2.10
2018-12-25T05:27:17.145Z,2.20
2018-12-25T05:29:43.240Z,2.20
2018-12-25T05:32:09.316Z,2.20
2018-12-25T05:34:35.393Z,2.30
2018-12-25T05:37:01.479Z,2.30
2018-12-25T05:39:27.564Z,2.30
2018-12-25T05:41:53.661Z,2.30
2018-12-25T05:44:19.722Z,2.30
2018-12-25T05:46:45.803Z,2.30
2018-12-25T05:49:11.983Z,2.30
2018-12-25T05:51:38.070Z,2.30
2018-12-25T05:54:04.156Z,2.40
2018-12-25T05:56:30.227Z,2.40
2018-12-25T05:58:56.332Z,2.40
2018-12-25T06:01:22.400Z,2.30
2018-12-25T06:03:48.474Z,2.30
2018-12-25T06:06:14.580Z,2.30
2018-12-25T06:08:42.672Z,2.30
2018-12-25T06:11:08.639Z,2.50
2018-12-25T06:13:34.713Z,2.10
2018-12-25T06:16:00.819Z,1.90
2018-12-25T06:18:26.896Z,1.80
2018-12-25T06:20:55.209Z,1.80
2018-12-25T06:23:21.001Z,1.80
2018-12-25T06:25:47.072Z,1.80
2018-12-25T06:28:13.188Z,1.80
2018-12-25T06:30:39.256Z,1.80
2018-12-25T06:33:05.343Z,1.70
2018-12-25T06:35:31.410Z,1.70
2018-12-25T06:37:57.498Z,1.60
2018-12-25T06:40:23.616Z,1.50
2018-12-25T06:42:49.776Z,1.40
2018-12-25T06:45:15.925Z,1.40
2018-12-25T06:47:42.011Z,1.50
2018-12-25T06:50:08.107Z,1.50
2018-12-25T06:52:34.204Z,1.40
2018-12-25T06:55:00.308Z,1.40
2018-12-25T06:57:26.404Z,1.40
2018-12-25T06:59:52.459Z,1.50
2018-12-25T07:02:18.539Z,1.50
2018-12-25T07:04:44.615Z,1.50
2018-12-25T07:07:10.800Z,1.50
2018-12-25T07:09:36.873Z,1.60
2018-12-25T07:12:02.976Z,1.60
2018-12-25T07:14:29.049Z,1.50
2018-12-25T07:16:55.131Z,1.50
2018-12-25T07:19:21.204Z,1.50
2018-12-25T07:21:47.273Z,1.60
2018-12-25T07:24:13.370Z,1.60
2018-12-25T07:26:39.443Z,1.70
2018-12-25T07:29:05.532Z,1.80
2018-12-25T07:31:31.612Z,1.90
2018-12-25T07:33:57.811Z,2.00
2018-12-25T07:36:23.902Z,1.90
2018-12-25T07:38:49.999Z,2.10
2018-12-25T07:41:16.072Z,2.10
2018-12-25T07:43:42.181Z,2.10
2018-12-25T07:46:08.254Z,2.20
2018-12-25T07:48:34.347Z,2.30
2018-12-25T07:51:00.435Z,2.40
2018-12-25T07:53:26.525Z,2.40
2018-12-25T07:55:52.612Z,2.40
2018-12-25T07:58:18.704Z,2.30
2018-12-25T08:00:44.849Z,2.20
2018-12-25T08:03:10.931Z,2.40
2018-12-25T08:05:37.010Z,2.40
2018-12-25T08:08:03.096Z,2.30
2018-12-25T08:10:29.167Z,2.30
2018-12-25T08:12:55.256Z,2.40
2018-12-25T08:15:21.338Z,2.40
2018-12-25T08:17:47.452Z,2.40
2018-12-25T08:20:13.516Z,2.40
2018-12-25T08:22:39.584Z,2.50
2018-12-25T08:25:05.674Z,2.50
2018-12-25T08:27:31.851Z,3.10
2018-12-25T08:29:58.043Z,2.40
2018-12-25T08:32:24.154Z,2.30
2018-12-25T08:34:50.279Z,2.30
2018-12-25T08:37:16.351Z,2.40
2018-12-25T08:39:53.836Z,2.40
2018-12-25T08:42:20.032Z,2.50
2018-12-25T08:44:46.179Z,2.40
2018-12-25T08:47:12.270Z,2.40
2018-12-25T08:49:38.363Z,2.50
2018-12-25T08:52:04.439Z,2.60
2018-12-25T08:54:30.579Z,2.50
2018-12-25T08:56:56.712Z,2.70
2018-12-25T08:59:22.799Z,2.80
2018-12-25T09:01:48.870Z,2.80
2018-12-25T09:04:14.951Z,3.00
2018-12-25T09:06:41.037Z,3.00
2018-12-25T09:09:07.107Z,2.90
2018-12-25T09:11:33.243Z,2.80
2018-12-25T09:13:59.372Z,2.50
2018-12-25T09:16:25.454Z,2.30
2018-12-25T09:18:51.600Z,2.10
2018-12-25T09:21:17.698Z,2.10
2018-12-25T09:23:43.895Z,2.10
2018-12-25T09:26:09.967Z,2.20
2018-12-25T09:28:36.056Z,2.20
2018-12-25T09:31:02.132Z,2.20
2018-12-25T09:33:28.196Z,2.20
2018-12-25T09:35:54.299Z,2.40
2018-12-25T09:38:20.383Z,2.30
2018-12-25T09:40:46.456Z,2.40
2018-12-25T09:43:12.515Z,2.40
2018-12-25T09:45:38.600Z,2.40
2018-12-25T09:48:04.674Z,2.30
2018-12-25T09:50:30.779Z,2.20
2018-12-25T09:52:56.861Z,2.20
2018-12-25T09:55:22.923Z,2.30
2018-12-25T09:57:49.011Z,2.40
2018-12-25T10:00:15.079Z,2.30
2018-12-25T10:02:41.173Z,2.30
2018-12-25T10:05:07.249Z,2.10
2018-12-25T10:07:33.311Z,2.30
2018-12-25T10:09:59.499Z,2.40
2018-12-25T10:12:27.269Z,2.70
2018-12-25T10:14:53.544Z,2.80
2018-12-25T10:17:19.639Z,2.80
2018-12-25T10:19:45.704Z,2.80
2018-12-25T10:22:11.781Z,2.90
2018-12-25T10:24:37.867Z,2.80
2018-12-25T10:27:03.951Z,2.80
2018-12-25T10:29:30.048Z,2.80
2018-12-25T10:31:56.120Z,2.80
2018-12-25T10:34:22.203Z,2.60
2018-12-25T10:36:48.312Z,2.80
2018-12-25T10:39:14.491Z,2.70
2018-12-25T10:41:40.679Z,2.80
2018-12-25T10:44:06.749Z,2.70
2018-12-25T10:46:32.845Z,2.80
2018-12-25T10:48:58.912Z,2.70
2018-12-25T10:51:25.040Z,2.80
2018-12-25T10:53:51.103Z,2.80
2018-12-25T10:56:17.289Z,2.80
2018-12-25T10:58:43.371Z,3.30
2018-12-25T11:01:11.065Z,2.90
2018-12-25T11:03:37.140Z,2.70
2018-12-25T11:06:03.240Z,2.70
2018-12-25T11:08:29.319Z,2.50
2018-12-25T11:10:55.395Z,2.40
2018-12-25T11:13:21.489Z,2.40
2018-12-25T11:15:47.669Z,2.40
2018-12-25T11:18:13.735Z,2.30
2018-12-25T11:20:39.830Z,2.40
2018-12-25T11:23:05.900Z,2.50
2018-12-25T11:25:31.982Z,2.70
2018-12-25T11:27:58.133Z,2.70
2018-12-25T11:30:24.198Z,2.80
2018-12-25T11:32:50.263Z,2.60
2018-12-25T11:35:16.363Z,2.50
2018-12-25T11:37:42.457Z,2.20
2018-12-25T11:40:08.644Z,2.30
2018-12-25T11:42:34.708Z,2.50
2018-12-25T11:45:00.840Z,2.50
2018-12-25T11:47:27.035Z,2.60
2018-12-25T11:49:53.124Z,2.60
2018-12-25T11:52:19.231Z,2.60
2018-12-25T11:54:45.299Z,2.60
2018-12-25T11:57:11.383Z,2.50
2018-12-25T11:59:37.457Z,2.20
2018-12-25T12:02:03.668Z,2.10
2018-12-25T12:04:29.734Z,2.20
2018-12-25T12:06:55.920Z,2.20
2018-12-25T12:09:22.008Z,2.20
2018-12-25T12:11:48.079Z,2.40
2018-12-25T12:14:14.169Z,2.20
2018-12-25T12:16:40.242Z,2.30
2018-12-25T12:19:06.331Z,2.30
2018-12-25T12:21:32.406Z,2.30
2018-12-25T12:23:58.501Z,2.30
2018-12-25T12:26:24.696Z,2.30
2018-12-25T12:28:50.792Z,0.80
2018-12-25T12:31:16.875Z,2.50
2018-12-25T12:33:42.944Z,2.60
2018-12-25T12:36:09.130Z,2.70
2018-12-25T12:38:35.210Z,2.80
2018-12-25T12:41:01.284Z,2.70
2018-12-25T12:43:27.399Z,2.80
2018-12-25T12:45:53.555Z,2.70
2018-12-25T12:48:19.643Z,2.10
2018-12-25T12:50:45.743Z,2.40
2018-12-25T12:53:11.824Z,2.40
2018-12-25T12:55:37.891Z,2.40
2018-12-25T12:58:03.989Z,2.50
2018-12-25T13:00:30.061Z,2.50
2018-12-25T13:02:56.152Z,2.50
2018-12-25T13:05:22.256Z,2.50
2018-12-25T13:07:48.435Z,2.60
2018-12-25T13:10:14.643Z,2.70
2018-12-25T13:12:40.927Z,2.90
2018-12-25T13:15:06.996Z,2.90
2018-12-25T13:17:33.073Z,2.70
2018-12-25T13:19:59.151Z,2.70
2018-12-25T13:22:25.263Z,2.60
2018-12-25T13:24:51.351Z,2.70
2018-12-25T13:27:17.423Z,2.70
2018-12-25T13:29:43.515Z,2.70
2018-12-25T13:32:09.580Z,2.80
2018-12-25T13:34:35.673Z,2.70
2018-12-25T13:37:01.751Z,2.70
2018-12-25T13:39:27.847Z,2.70
2018-12-25T13:41:53.919Z,2.60
2018-12-25T13:44:19.984Z,2.60
2018-12-25T13:46:51.495Z,2.60
2018-12-25T13:49:14.041Z,2.60
2018-12-25T13:51:41.323Z,2.40
2018-12-25T13:54:07.653Z,2.40
2018-12-25T13:56:33.755Z,2.40
2018-12-25T13:58:59.839Z,2.60
2018-12-25T14:01:26.066Z,2.70
2018-12-25T14:03:52.136Z,2.80
2018-12-25T14:06:18.204Z,2.80
2018-12-25T14:08:44.299Z,2.70
2018-12-25T14:11:10.363Z,2.70
2018-12-25T14:13:36.471Z,2.50
2018-12-25T14:16:02.543Z,2.50
2018-12-25T14:18:28.612Z,2.40
2018-12-25T14:20:54.700Z,2.30
2018-12-25T14:23:20.780Z,2.30
2018-12-25T14:25:46.861Z,2.30
2018-12-25T14:28:12.932Z,2.40
2018-12-25T14:30:39.036Z,2.20
2018-12-25T14:33:05.107Z,2.30
2018-12-25T14:35:31.189Z,2.40
2018-12-25T14:37:57.283Z,2.50
2018-12-25T14:40:23.354Z,2.40
2018-12-25T14:42:49.452Z,2.20
2018-12-25T14:45:15.521Z,2.20
2018-12-25T14:47:41.604Z,2.10
2018-12-25T14:50:07.692Z,2.00
2018-12-25T14:52:33.776Z,1.80
2018-12-25T14:54:59.868Z,1.70
2018-12-25T14:57:25.996Z,1.60
2018-12-25T14:59:52.091Z,1.60
2018-12-25T15:02:18.162Z,1.50
2018-12-25T15:04:44.235Z,1.50
2018-12-25T15:07:10.326Z,1.50
2018-12-25T15:09:36.395Z,1.50
2018-12-25T15:12:02.592Z,1.60
2018-12-25T15:14:28.664Z,1.80
2018-12-25T15:16:54.740Z,1.80
2018-12-25T15:19:20.831Z,1.90
2018-12-25T15:21:46.907Z,1.90
2018-12-25T15:24:13.057Z,1.90
2018-12-25T15:26:39.159Z,1.90
2018-12-25T15:29:05.263Z,1.90
2018-12-25T15:31:31.490Z,1.90
2018-12-25T15:33:57.648Z,2.00
2018-12-25T15:36:23.709Z,2.00
2018-12-25T15:38:49.793Z,1.90
2018-12-25T15:41:16.223Z,1.90
2018-12-25T15:43:42.359Z,1.60
2018-12-25T15:46:08.424Z,1.60
2018-12-25T15:48:34.495Z,1.50
2018-12-25T15:51:00.583Z,1.50
2018-12-25T15:53:27.673Z,1.50
2018-12-25T15:55:53.760Z,1.50
2018-12-25T15:58:19.838Z,1.50
2018-12-25T16:00:45.910Z,1.50
2018-12-25T16:03:11.981Z,1.50
2018-12-25T16:05:38.067Z,1.40
2018-12-25T16:08:04.137Z,1.30
2018-12-25T16:10:30.231Z,1.30
2018-12-25T16:12:56.305Z,1.20
2018-12-25T16:15:22.388Z,1.30
2018-12-25T16:17:48.493Z,1.10
2018-12-25T16:20:14.599Z,1.00
2018-12-25T16:22:40.708Z,0.90
2018-12-25T16:25:06.843Z,0.80
2018-12-25T16:27:32.915Z,0.70
2018-12-25T16:29:59.053Z,0.60
2018-12-25T16:32:25.193Z,0.50
2018-12-25T16:34:51.309Z,0.50
2018-12-25T16:37:17.384Z,0.50
2018-12-25T16:39:43.475Z,0.60
2018-12-25T16:42:09.550Z,0.50
2018-12-25T16:44:35.619Z,0.40
2018-12-25T16:47:01.700Z,0.40
2018-12-25T16:49:27.782Z,0.30
2018-12-25T16:51:53.963Z,0.30
2018-12-25T16:54:20.037Z,0.30
2018-12-25T16:56:46.129Z,0.30
2018-12-25T16:59:12.191Z,0.20
2018-12-25T17:01:38.280Z,0.20
2018-12-25T17:04:04.363Z,0.20
2018-12-25T17:06:30.456Z,0.10
2018-12-25T17:08:56.516Z,0.00
2018-12-25T17:11:22.595Z,0.00
2018-12-25T17:13:48.669Z,-0.10
2018-12-25T17:16:14.764Z,-0.20
2018-12-25T17:18:40.911Z,-0.20
2018-12-25T17:21:07.084Z,-0.30
2018-12-25T17:23:33.151Z,-0.30
2018-12-25T17:25:59.244Z,-0.20
2018-12-25T17:28:27.850Z,-0.30
2018-12-25T17:30:53.323Z,-0.30
2018-12-25T17:33:19.464Z,-0.40
2018-12-25T17:35:48.219Z,-0.40
2018-12-25T17:38:14.287Z,-0.30
2018-12-25T17:40:40.381Z,-0.30
2018-12-25T17:43:06.454Z,-0.30
2018-12-25T17:45:32.626Z,-0.30
2018-12-25T17:47:58.708Z,-0.30
2018-12-25T17:50:24.782Z,-0.50
2018-12-25T17:52:50.867Z,-0.50
2018-12-25T17:55:16.953Z,-0.40
2018-12-25T17:57:43.039Z,-0.40
2018-12-25T18:00:09.107Z,-0.50
2018-12-25T18:02:35.196Z,-0.50
2018-12-25T18:05:01.367Z,-0.50
2018-12-25T18:07:27.480Z,-0.40
2018-12-25T18:09:53.552Z,-0.40
2018-12-25T18:12:19.639Z,-0.40
2018-12-25T18:14:45.721Z,-0.40
2018-12-25T18:17:18.844Z,-0.40
2018-12-25T18:19:39.789Z,-0.40
2018-12-25T18:22:05.867Z,-0.40
2018-12-25T18:24:31.946Z,-0.40
2018-12-25T18:26:58.030Z,-0.40
2018-12-25T18:29:24.104Z,-0.40
2018-12-25T18:31:50.202Z,-0.40
2018-12-25T18:34:16.276Z,-0.50
2018-12-25T18:36:42.379Z,-1.20
2018-12-25T18:39:08.464Z,-0.50
2018-12-25T18:41:34.633Z,-0.60
2018-12-25T18:44:02.145Z,-0.60
2018-12-25T18:46:48.180Z,-0.60
2018-12-25T18:49:14.266Z,-0.70
2018-12-25T18:51:40.332Z,-0.60
2018-12-25T18:54:06.421Z,-0.70
2018-12-25T18:56:32.512Z,-0.70
2018-12-25T18:58:58.597Z,-0.60
2018-12-25T19:01:24.659Z,-0.60
2018-12-25T19:03:50.757Z,-0.60
2018-12-25T19:06:16.827Z,-0.60
2018-12-25T19:08:42.916Z,-0.70
2018-12-25T19:11:08.996Z,-0.60
2018-12-25T19:13:35.083Z,-0.60
2018-12-25T19:16:02.064Z,-0.70
2018-12-25T19:18:28.145Z,-0.70
2018-12-25T19:20:54.217Z,-0.70
2018-12-25T19:23:20.301Z,-0.60
2018-12-25T19:25:46.379Z,-0.60
2018-12-25T19:28:12.467Z,-0.60
2018-12-25T19:30:38.736Z,-0.60
2018-12-25T19:33:04.832Z,-0.60
2018-12-25T19:35:30.910Z,-0.70
2018-12-25T19:37:57.203Z,-0.70
2018-12-25T19:40:23.336Z,-0.80
2018-12-25T19:42:49.427Z,-0.80
2018-12-25T19:45:15.806Z,-0.90
2018-12-25T19:47:41.912Z,-0.90
2018-12-25T19:50:07.997Z,-0.80
2018-12-25T19:52:34.107Z,-0.80
2018-12-25T19:55:00.279Z,-0.70
2018-12-25T19:57:26.348Z,-0.80
2018-12-25T19:59:52.436Z,-0.70
2018-12-25T20:02:18.527Z,-0.70
2018-12-25T20:05:08.487Z,-0.80
2018-12-25T20:07:50.239Z,-0.90
2018-12-25T20:10:32.853Z,-0.80
2018-12-25T20:13:08.755Z,-0.80
2018-12-25T20:15:41.644Z,-0.90
2018-12-25T20:18:29.520Z,-1.00
2018-12-25T20:21:17.079Z,-0.80
2018-12-25T20:24:08.337Z,-0.90
2018-12-25T20:26:40.808Z,-1.00
2018-12-25T20:29:27.629Z,-1.00
2018-12-25T20:32:03.324Z,-1.00
2018-12-25T20:34:48.248Z,-0.90
2018-12-25T20:37:27.449Z,-0.80
2018-12-25T20:39:57.364Z,-0.70
2018-12-25T20:42:46.688Z,-0.60
2018-12-25T20:45:41.046Z,-0.50
2018-12-25T20:48:29.370Z,-0.50
2018-12-25T20:51:23.430Z,-0.60
2018-12-25T20:54:05.671Z,-0.60
2018-12-25T20:56:57.186Z,-0.60
2018-12-25T20:59:50.900Z,-0.70
2018-12-25T21:02:32.662Z,-0.70
2018-12-25T21:05:05.330Z,-0.70
2018-12-25T21:07:41.287Z,-0.70
2018-12-25T21:10:27.887Z,-0.70
2018-12-25T21:13:03.521Z,-0.80
2018-12-25T21:16:07.321Z,-0.80
2018-12-25T21:18:54.136Z,-0.60
2018-12-25T21:21:40.716Z,-0.60
2018-12-25T21:24:44.560Z,-0.60
2018-12-25T21:27:29.448Z,-0.40
2018-12-25T21:29:56.258Z,-0.50
2018-12-25T21:32:22.556Z,-0.60
2018-12-25T21:34:49.628Z,-0.70
2018-12-25T21:37:15.721Z,-0.70
2018-12-25T21:39:41.895Z,-0.70
2018-12-25T21:42:08.084Z,-0.80
2018-12-25T21:44:34.257Z,-0.80
2018-12-25T21:47:00.356Z,-0.80
2018-12-25T21:49:26.428Z,-0.70
2018-12-25T21:51:52.503Z,-0.70
2018-12-25T21:54:18.595Z,-0.70
2018-12-25T21:56:44.877Z,-0.70
2018-12-25T21:59:10.959Z,-0.60
2018-12-25T22:01:37.431Z,-0.50
2018-12-25T22:04:03.534Z,-0.50
2018-12-25T22:06:29.632Z,-0.60
2018-12-25T22:08:55.690Z,-0.60
2018-12-25T22:11:21.776Z,-0.70
2018-12-25T22:13:47.847Z,-0.80
2018-12-25T22:16:13.955Z,-0.70
2018-12-25T22:18:40.112Z,-0.70
2018-12-25T22:21:06.204Z,-0.70
2018-12-25T22:23:32.288Z,-0.70
2018-12-25T22:25:58.422Z,-0.70
2018-12-25T22:28:24.668Z,-0.70
2018-12-25T22:30:50.857Z,-0.80
2018-12-25T22:33:16.953Z,-0.80
2018-12-25T22:35:43.122Z,-0.80
2018-12-25T22:38:09.190Z,-0.80
2018-12-25T22:40:35.275Z,-0.90
2018-12-25T22:43:01.340Z,-0.90
2018-12-25T22:45:27.405Z,-0.90
2018-12-25T22:47:53.482Z,-1.00
2018-12-25T22:50:19.543Z,-1.00
2018-12-25T22:53:05.505Z,-1.00
2018-12-25T22:55:35.746Z,-1.60
2018-12-25T22:57:59.556Z,-1.10
2018-12-25T23:02:59.791Z,-1.20
2018-12-25T23:05:25.895Z,-1.30
2018-12-25T23:07:51.991Z,-1.30
2018-12-25T23:10:18.067Z,-1.30
2018-12-25T23:12:44.154Z,-1.40
2018-12-25T23:15:10.310Z,-1.40
2018-12-25T23:17:36.412Z,-1.50
2018-12-25T23:20:03.490Z,-1.50
2018-12-25T23:22:29.687Z,-1.40
2018-12-25T23:24:55.760Z,-1.40
2018-12-25T23:27:21.860Z,-1.40
2018-12-25T23:29:48.022Z,-1.30
2018-12-25T23:32:14.108Z,-1.30
2018-12-25T23:34:40.198Z,-1.20
2018-12-25T23:37:06.359Z,-1.20
2018-12-25T23:39:32.539Z,-1.10
2018-12-25T23:41:59.492Z,-1.10
2018-12-25T23:44:25.707Z,-1.00
2018-12-25T23:46:51.767Z,-1.10
2018-12-25T23:49:17.856Z,-1.00
2018-12-25T23:51:43.935Z,-0.90
2018-12-25T23:54:10.124Z,-0.80
2018-12-25T23:56:36.203Z,-0.80
2018-12-25T23:59:02.329Z,-0.80
